createdAt,value
2019-05-01T00:01:00.670Z,7.23
2019-05-01T00:03:51.061Z,11.10
2019-05-01T00:06:26.522Z,6.07
2019-05-01T00:08:57.409Z,8.97
2019-05-01T00:11:28.641Z,7.53
2019-05-01T00:14:00.531Z,7.97
2019-05-01T00:16:31.331Z,7.90
2019-05-01T00:19:04.069Z,8.63
2019-05-01T00:21:34.866Z,7.67
2019-05-01T00:24:06.544Z,10.37
2019-05-01T00:26:40.535Z,7.10
2019-05-01T00:29:11.334Z,9.30
2019-05-01T00:31:42.481Z,10.20
2019-05-01T00:34:13.343Z,6.73
2019-05-01T00:36:46.195Z,8.13
2019-05-01T00:39:18.736Z,12.57
2019-05-01T00:41:49.495Z,9.57
2019-05-01T00:44:21.500Z,12.30
2019-05-01T00:46:52.680Z,7.10
2019-05-01T00:49:23.776Z,8.60
2019-05-01T00:51:54.602Z,7.93
2019-05-01T00:54:25.625Z,9.97
2019-05-01T00:56:58.070Z,9.17
2019-05-01T00:59:40.558Z,8.00
2019-05-01T01:02:12.860Z,12.03
2019-05-01T01:04:44.539Z,7.67
2019-05-01T01:07:15.237Z,7.17
2019-05-01T01:09:46.119Z,13.70
2019-05-01T01:12:16.815Z,10.37
2019-05-01T01:14:47.562Z,6.90
2019-05-01T01:17:20.794Z,10.27
2019-05-01T01:19:51.599Z,7.17
2019-05-01T01:22:22.343Z,9.07
2019-05-01T01:24:54.284Z,7.00
2019-05-01T01:27:25.621Z,9.30
2019-05-01T01:29:56.899Z,9.27
2019-05-01T01:32:27.583Z,9.20
2019-05-01T01:34:58.223Z,7.20
2019-05-01T01:37:28.930Z,10.73
2019-05-01T01:39:59.993Z,6.83
2019-05-01T01:42:31.270Z,9.40
2019-05-01T01:45:04.187Z,6.37
2019-05-01T01:47:35.300Z,9.13
2019-05-01T01:50:07.574Z,9.63
2019-05-01T01:52:38.279Z,9.13
2019-05-01T01:55:09.179Z,9.57
2019-05-01T01:57:40.540Z,12.20
2019-05-01T02:00:12.924Z,11.47
2019-05-01T02:02:45.349Z,7.50
2019-05-01T02:05:17.823Z,7.03
2019-05-01T02:07:49.127Z,8.43
2019-05-01T02:10:19.965Z,8.97
2019-05-01T02:12:50.852Z,7.80
2019-05-01T02:15:21.695Z,8.50
2019-05-01T02:17:53.407Z,9.30
2019-05-01T02:20:27.050Z,6.60
2019-05-01T02:22:57.934Z,11.37
2019-05-01T02:25:29.667Z,7.13
2019-05-01T02:28:19.229Z,9.27
2019-05-01T02:31:07.613Z,9.97
2019-05-01T02:33:40.054Z,9.17
2019-05-01T02:36:12.294Z,7.90
2019-05-01T02:38:45.261Z,7.27
2019-05-01T02:41:17.763Z,9.97
2019-05-01T02:43:51.800Z,8.00
2019-05-01T02:46:25.234Z,6.50
2019-05-01T02:49:00.309Z,7.27
2019-05-01T02:51:32.096Z,7.37
2019-05-01T02:54:03.386Z,5.57
2019-05-01T02:56:47.125Z,7.67
2019-05-01T02:59:18.719Z,6.60
2019-05-01T03:01:50.185Z,7.57
2019-05-01T03:04:21.130Z,5.93
2019-05-01T03:06:52.778Z,6.87
2019-05-01T03:09:24.431Z,7.87
2019-05-01T03:11:57.931Z,7.97
2019-05-01T03:14:31.071Z,6.50
2019-05-01T03:17:03.963Z,7.47
2019-05-01T03:19:37.288Z,7.53
2019-05-01T03:22:12.479Z,7.77
2019-05-01T03:24:43.281Z,6.20
2019-05-01T03:27:14.076Z,6.83
2019-05-01T03:29:44.777Z,7.30
2019-05-01T03:32:19.108Z,7.73
2019-05-01T03:34:52.767Z,7.43
2019-05-01T03:37:22.233Z,7.53
2019-05-01T03:39:53.880Z,8.80
2019-05-01T03:42:25.195Z,5.83
2019-05-01T03:44:56.146Z,6.73
2019-05-01T03:47:27.267Z,8.93
2019-05-01T03:49:59.787Z,11.53
2019-05-01T03:52:30.613Z,9.90
2019-05-01T03:55:01.362Z,11.47
2019-05-01T03:57:32.024Z,12.37
2019-05-01T04:00:05.266Z,7.43
2019-05-01T04:02:37.867Z,10.90
2019-05-01T04:05:08.917Z,11.07
2019-05-01T04:07:41.732Z,8.33
2019-05-01T04:10:12.435Z,8.80
2019-05-01T04:12:43.154Z,8.43
2019-05-01T04:15:14.159Z,12.20
2019-05-01T04:17:49.967Z,12.23
2019-05-01T04:20:21.015Z,7.83
2019-05-01T04:22:52.370Z,9.30
2019-05-01T04:25:23.833Z,7.67
2019-05-01T04:27:58.917Z,9.57
2019-05-01T04:30:47.297Z,8.20
2019-05-01T04:33:19.565Z,11.37
2019-05-01T04:35:52.155Z,11.63
2019-05-01T04:38:22.845Z,9.17
2019-05-01T04:40:54.431Z,8.53
2019-05-01T04:43:26.329Z,6.93
2019-05-01T04:45:57.692Z,5.70
2019-05-01T04:48:29.981Z,8.33
2019-05-01T04:51:00.835Z,6.00
2019-05-01T04:53:31.824Z,7.13
2019-05-01T04:56:02.613Z,7.47
2019-05-01T04:58:33.400Z,7.17
2019-05-01T05:01:04.480Z,7.90
2019-05-01T05:03:35.426Z,8.43
2019-05-01T05:06:06.637Z,7.80
2019-05-01T05:08:38.574Z,8.57
2019-05-01T05:11:11.047Z,7.20
2019-05-01T05:14:00.240Z,7.87
2019-05-01T05:16:48.397Z,6.67
2019-05-01T05:19:19.662Z,7.57
2019-05-01T05:21:52.319Z,5.93
2019-05-01T05:24:23.317Z,5.90
2019-05-01T05:26:54.508Z,8.07
2019-05-01T05:29:25.624Z,6.27
2019-05-01T05:31:59.206Z,9.80
2019-05-01T05:34:30.969Z,7.57
2019-05-01T05:37:04.949Z,8.67
2019-05-01T05:39:41.121Z,5.87
2019-05-01T05:42:12.530Z,8.23
2019-05-01T05:44:44.724Z,7.03
2019-05-01T05:47:15.535Z,7.47
2019-05-01T05:49:47.006Z,10.47
2019-05-01T05:52:19.565Z,7.30
2019-05-01T05:54:53.876Z,9.00
2019-05-01T05:57:29.983Z,7.53
2019-05-01T06:00:08.148Z,7.67
2019-05-01T06:02:42.743Z,10.07
2019-05-01T06:05:21.171Z,8.80
2019-05-01T06:08:11.228Z,7.37
2019-05-01T06:11:03.037Z,6.67
2019-05-01T06:13:52.586Z,7.97
2019-05-01T06:16:42.172Z,13.93
2019-05-01T06:19:27.091Z,7.67
2019-05-01T06:22:16.784Z,21.57
2019-05-01T06:24:58.965Z,7.17
2019-05-01T06:27:31.821Z,6.70
2019-05-01T06:30:06.630Z,8.67
2019-05-01T06:32:35.594Z,8.60
2019-05-01T06:35:07.430Z,6.97
2019-05-01T06:38:00.723Z,7.43
2019-05-01T06:40:39.390Z,7.83
2019-05-01T06:43:20.193Z,9.10
2019-05-01T06:45:53.006Z,10.40
2019-05-01T06:48:28.166Z,9.70
2019-05-01T06:51:18.741Z,7.63
2019-05-01T06:53:50.310Z,8.97
2019-05-01T06:56:21.283Z,7.50
2019-05-01T06:58:55.254Z,8.77
2019-05-01T07:01:25.111Z,11.03
2019-05-01T07:04:03.382Z,10.83
2019-05-01T07:06:31.118Z,9.33
2019-05-01T07:09:02.450Z,10.27
2019-05-01T07:11:35.418Z,9.53
2019-05-01T07:14:06.304Z,9.70
2019-05-01T07:16:37.972Z,8.37
2019-05-01T07:19:10.834Z,7.73
2019-05-01T07:21:43.170Z,7.93
2019-05-01T07:24:14.018Z,5.77
2019-05-01T07:26:48.023Z,7.33
2019-05-01T07:29:19.836Z,5.70
2019-05-01T07:31:50.738Z,5.73
2019-05-01T07:34:29.796Z,5.85
2019-05-01T07:37:01.326Z,7.42
2019-05-01T07:39:32.760Z,5.00
2019-05-01T07:42:21.473Z,12.28
2019-05-01T07:44:54.395Z,5.92
2019-05-01T07:47:33.035Z,7.67
2019-05-01T07:50:07.624Z,7.97
2019-05-01T07:52:39.194Z,8.45
2019-05-01T07:55:12.994Z,5.30
2019-05-01T07:57:44.662Z,6.53
2019-05-01T08:00:36.977Z,5.78
2019-05-01T08:03:07.216Z,8.63
2019-05-01T08:05:40.939Z,4.92
2019-05-01T08:08:11.365Z,4.60
2019-05-01T08:10:42.030Z,5.20
2019-05-01T08:13:12.573Z,5.95
2019-05-01T08:15:45.139Z,4.80
2019-05-01T08:18:32.610Z,7.58
2019-05-01T08:21:05.566Z,7.65
2019-05-01T08:23:37.007Z,5.05
2019-05-01T08:26:08.697Z,4.70
2019-05-01T08:28:56.603Z,5.78
2019-05-01T08:31:35.310Z,5.15
2019-05-01T08:34:07.947Z,12.30
2019-05-01T08:36:42.723Z,7.95
2019-05-01T08:39:13.893Z,4.05
2019-05-01T08:41:44.082Z,8.65
2019-05-01T08:44:14.904Z,6.60
2019-05-01T08:46:59.540Z,6.28
2019-05-01T08:49:41.759Z,5.20
2019-05-01T08:52:13.896Z,6.53
2019-05-01T08:54:43.739Z,4.87
2019-05-01T08:57:15.126Z,5.72
2019-05-01T08:59:45.950Z,6.28
2019-05-01T09:02:16.693Z,4.75
2019-05-01T09:04:47.576Z,5.65
2019-05-01T09:07:19.169Z,6.37
2019-05-01T09:09:50.635Z,4.05
2019-05-01T09:12:21.365Z,4.08
2019-05-01T09:14:52.677Z,4.30
2019-05-01T09:17:24.185Z,5.25
2019-05-01T09:19:54.954Z,4.00
2019-05-01T09:22:25.763Z,9.45
2019-05-01T09:24:59.891Z,3.67
2019-05-01T09:27:34.906Z,6.83
2019-05-01T09:30:15.738Z,4.85
2019-05-01T09:32:54.143Z,5.25
2019-05-01T09:35:20.296Z,6.50
2019-05-01T09:37:51.859Z,5.95
2019-05-01T09:40:22.680Z,4.78
2019-05-01T09:42:54.817Z,6.72
2019-05-01T09:45:26.656Z,5.05
2019-05-01T09:47:57.706Z,7.85
2019-05-01T09:50:31.637Z,4.47
2019-05-01T09:53:08.005Z,6.75
2019-05-01T09:55:40.761Z,7.00
2019-05-01T09:58:11.923Z,5.17
2019-05-01T10:00:42.559Z,4.72
2019-05-01T10:03:16.906Z,4.62
2019-05-01T10:05:46.726Z,17.42
2019-05-01T10:08:17.615Z,3.87
2019-05-01T10:10:51.084Z,4.28
2019-05-01T10:13:24.001Z,5.80
2019-05-01T10:15:54.403Z,3.10
2019-05-01T10:18:25.620Z,6.08
2019-05-01T10:20:56.570Z,4.37
2019-05-01T10:23:27.466Z,5.80
2019-05-01T10:26:00.840Z,8.70
2019-05-01T10:28:38.980Z,6.83
2019-05-01T10:31:12.393Z,7.00
2019-05-01T10:33:45.557Z,6.35
2019-05-01T10:36:20.433Z,5.53
2019-05-01T10:38:50.519Z,7.25
2019-05-01T10:41:21.085Z,8.70
2019-05-01T10:43:52.133Z,6.90
2019-05-01T10:46:22.762Z,6.58
2019-05-01T10:48:53.355Z,5.67
2019-05-01T10:51:24.067Z,6.72
2019-05-01T10:53:54.982Z,6.55
2019-05-01T10:56:26.169Z,5.05
2019-05-01T10:58:57.584Z,7.53
2019-05-01T11:01:46.930Z,6.90
2019-05-01T11:04:18.273Z,10.38
2019-05-01T11:06:49.005Z,10.78
2019-05-01T11:09:20.355Z,8.55
2019-05-01T11:11:51.091Z,9.38
2019-05-01T11:14:22.127Z,11.65
2019-05-01T11:16:52.746Z,8.38
2019-05-01T11:19:23.530Z,10.75
2019-05-01T11:21:54.415Z,9.85
2019-05-01T11:24:25.391Z,8.88
2019-05-01T11:26:59.088Z,12.03
2019-05-01T11:29:29.813Z,9.03
2019-05-01T11:32:02.996Z,10.38
2019-05-01T11:34:35.952Z,10.90
2019-05-01T11:37:20.285Z,11.70
2019-05-01T11:39:59.206Z,11.43
2019-05-01T11:42:30.527Z,15.58
2019-05-01T11:45:02.717Z,13.55
2019-05-01T11:47:33.614Z,12.53
2019-05-01T11:50:06.291Z,10.15
2019-05-01T11:52:37.220Z,16.65
2019-05-01T11:55:08.343Z,12.70
2019-05-01T11:57:39.047Z,12.00
2019-05-01T12:00:14.261Z,14.98
2019-05-01T12:02:44.916Z,13.32
2019-05-01T12:05:15.855Z,12.58
2019-05-01T12:07:46.632Z,12.45
2019-05-01T12:10:17.723Z,13.50
2019-05-01T12:12:48.380Z,22.70
2019-05-01T12:15:20.432Z,12.47
2019-05-01T12:17:51.692Z,11.05
2019-05-01T12:20:23.898Z,9.88
2019-05-01T12:22:54.756Z,12.07
2019-05-01T12:25:25.768Z,12.07
2019-05-01T12:27:57.225Z,12.85
2019-05-01T12:30:28.403Z,14.23
2019-05-01T12:33:00.081Z,14.10
2019-05-01T12:35:31.143Z,12.82
2019-05-01T12:38:03.895Z,17.80
2019-05-01T12:40:34.779Z,14.25
2019-05-01T12:43:05.994Z,10.25
2019-05-01T12:45:36.754Z,40.05
2019-05-01T12:48:07.520Z,58.17
2019-05-01T12:50:38.215Z,16.05
2019-05-01T12:53:11.127Z,13.18
2019-05-01T12:56:02.076Z,14.78
2019-05-01T12:58:33.300Z,13.35
2019-05-01T13:01:04.539Z,17.40
2019-05-01T13:03:35.572Z,13.93
2019-05-01T13:06:06.464Z,17.65
2019-05-01T13:08:37.082Z,19.95
2019-05-01T13:11:07.858Z,17.65
2019-05-01T13:13:39.769Z,20.48
2019-05-01T13:16:10.680Z,20.32
2019-05-01T13:18:41.283Z,17.48
2019-05-01T13:21:12.255Z,17.15
2019-05-01T13:23:43.001Z,16.45
2019-05-01T13:26:15.605Z,17.73
2019-05-01T13:28:48.859Z,17.60
2019-05-01T13:31:21.447Z,17.32
2019-05-01T13:33:52.292Z,17.95
2019-05-01T13:36:23.385Z,20.08
2019-05-01T13:38:54.497Z,21.80
2019-05-01T13:41:25.356Z,20.50
2019-05-01T13:43:56.352Z,24.60
2019-05-01T13:46:28.579Z,23.50
2019-05-01T13:48:59.564Z,23.67
2019-05-01T13:51:30.471Z,23.32
2019-05-01T13:54:01.575Z,24.85
2019-05-01T13:56:33.770Z,21.37
2019-05-01T13:59:06.710Z,25.88
2019-05-01T14:01:37.962Z,34.92
2019-05-01T14:04:09.635Z,29.00
2019-05-01T14:06:40.445Z,35.10
2019-05-01T14:09:13.086Z,37.60
2019-05-01T14:11:44.196Z,34.20
2019-05-01T14:14:14.962Z,30.77
2019-05-01T14:16:46.046Z,42.03
2019-05-01T14:19:17.690Z,30.07
2019-05-01T14:21:50.030Z,35.20
2019-05-01T14:24:29.035Z,29.73
2019-05-01T14:26:59.714Z,26.43
2019-05-01T14:29:30.498Z,27.67
2019-05-01T14:32:02.403Z,25.40
2019-05-01T14:34:33.375Z,27.57
2019-05-01T14:37:04.501Z,24.93
2019-05-01T14:39:35.396Z,22.30
2019-05-01T14:42:06.073Z,28.00
2019-05-01T14:44:37.320Z,22.90
2019-05-01T14:47:08.061Z,24.67
2019-05-01T14:49:38.806Z,23.73
2019-05-01T14:52:09.527Z,32.67
2019-05-01T14:54:40.108Z,26.37
2019-05-01T14:57:10.648Z,24.33
2019-05-01T14:59:41.469Z,28.27
2019-05-01T15:02:12.405Z,22.42
2019-05-01T15:04:43.150Z,27.15
2019-05-01T15:07:14.189Z,23.47
2019-05-01T15:09:45.305Z,24.12
2019-05-01T15:12:16.055Z,23.32
2019-05-01T15:14:55.631Z,22.25
2019-05-01T15:17:29.879Z,22.35
2019-05-01T15:20:05.418Z,21.85
2019-05-01T15:22:37.711Z,19.35
2019-05-01T15:25:08.706Z,18.30
2019-05-01T15:27:39.363Z,22.60
2019-05-01T15:30:12.677Z,18.50
2019-05-01T15:32:43.469Z,19.40
2019-05-01T15:35:14.453Z,19.07
2019-05-01T15:37:56.083Z,18.65
2019-05-01T15:40:19.530Z,23.32
2019-05-01T15:42:52.006Z,19.12
2019-05-01T15:45:23.339Z,21.65
2019-05-01T15:47:54.273Z,18.82
2019-05-01T15:50:25.259Z,19.43
2019-05-01T15:52:56.243Z,19.70
2019-05-01T15:55:27.110Z,19.73
2019-05-01T15:57:57.788Z,20.97
2019-05-01T16:00:29.452Z,20.43
2019-05-01T16:03:00.209Z,23.00
2019-05-01T16:05:31.279Z,20.60
2019-05-01T16:08:09.524Z,23.65
2019-05-01T16:10:36.948Z,14.95
2019-05-01T16:13:08.126Z,14.78
2019-05-01T16:15:39.268Z,13.93
2019-05-01T16:18:11.011Z,15.18
2019-05-01T16:20:41.955Z,17.45
2019-05-01T16:23:12.747Z,15.83
2019-05-01T16:25:43.604Z,14.58
2019-05-01T16:28:15.352Z,17.07
2019-05-01T16:30:46.351Z,15.25
2019-05-01T16:33:17.392Z,15.10
2019-05-01T16:35:48.220Z,14.60
2019-05-01T16:38:22.991Z,15.90
2019-05-01T16:40:59.912Z,16.10
2019-05-01T16:43:31.331Z,15.08
2019-05-01T16:46:02.272Z,16.67
2019-05-01T16:48:33.213Z,18.65
2019-05-01T16:51:06.560Z,16.52
2019-05-01T16:53:38.012Z,18.27
2019-05-01T16:56:08.774Z,27.30
2019-05-01T16:58:40.135Z,16.67
2019-05-01T17:01:13.778Z,15.20
2019-05-01T17:03:59.039Z,15.03
2019-05-01T17:06:37.675Z,18.62
2019-05-01T17:09:28.657Z,20.23
2019-05-01T17:11:59.659Z,15.78
2019-05-01T17:14:30.615Z,18.25
2019-05-01T17:17:01.584Z,19.97
2019-05-01T17:19:33.072Z,21.27
2019-05-01T17:22:04.429Z,18.47
2019-05-01T17:24:35.382Z,19.13
2019-05-01T17:27:06.436Z,18.90
2019-05-01T17:29:37.274Z,19.73
2019-05-01T17:32:11.810Z,17.23
2019-05-01T17:34:43.026Z,21.53
2019-05-01T17:37:14.036Z,22.03
2019-05-01T17:39:45.757Z,20.30
2019-05-01T17:42:18.139Z,21.73
2019-05-01T17:44:48.833Z,18.57
2019-05-01T17:47:22.475Z,17.73
2019-05-01T17:49:52.383Z,21.60
2019-05-01T17:52:25.537Z,16.80
2019-05-01T17:54:56.713Z,18.67
2019-05-01T17:57:27.564Z,20.17
2019-05-01T18:00:00.181Z,20.27
2019-05-01T18:02:41.700Z,16.50
2019-05-01T18:05:17.894Z,20.60
2019-05-01T18:07:48.842Z,16.37
2019-05-01T18:10:20.943Z,18.23
2019-05-01T18:12:53.557Z,21.23
2019-05-01T18:15:24.588Z,21.43
2019-05-01T18:17:55.434Z,23.30
2019-05-01T18:20:26.699Z,23.40
2019-05-01T18:23:12.295Z,20.50
2019-05-01T18:25:48.813Z,34.43
2019-05-01T18:28:40.060Z,19.73
2019-05-01T18:31:15.991Z,20.93
2019-05-01T18:33:48.793Z,22.80
2019-05-01T18:36:24.579Z,67.67
2019-05-01T18:38:59.002Z,75.87
2019-05-01T18:41:38.019Z,114.07
2019-05-01T18:44:10.188Z,161.60
2019-05-01T18:46:41.588Z,68.13
2019-05-01T18:49:13.493Z,48.60
2019-05-01T18:51:44.064Z,63.87
2019-05-01T18:54:15.135Z,26.87
2019-05-01T18:56:45.894Z,26.60
2019-05-01T18:59:19.473Z,22.90
2019-05-01T19:01:50.649Z,22.13
2019-05-01T19:04:24.756Z,33.07
2019-05-01T19:06:55.693Z,28.40
2019-05-01T19:09:30.249Z,22.37
2019-05-01T19:12:01.022Z,23.30
2019-05-01T19:14:32.489Z,22.00
2019-05-01T19:17:03.203Z,24.47
2019-05-01T19:19:34.344Z,24.90
2019-05-01T19:22:06.509Z,24.63
2019-05-01T19:24:40.094Z,28.43
2019-05-01T19:27:14.219Z,21.13
2019-05-01T19:29:44.729Z,26.00
2019-05-01T19:32:17.452Z,29.57
2019-05-01T19:34:49.653Z,30.50
2019-05-01T19:37:21.929Z,24.10
2019-05-01T19:39:55.543Z,28.43
2019-05-01T19:42:26.392Z,26.53
2019-05-01T19:44:57.802Z,26.50
2019-05-01T19:47:29.512Z,26.30
2019-05-01T19:50:06.488Z,28.43
2019-05-01T19:52:37.822Z,29.33
2019-05-01T19:55:08.870Z,22.93
2019-05-01T19:57:40.914Z,28.43
2019-05-01T20:00:13.301Z,24.17
2019-05-01T20:02:45.852Z,23.27
2019-05-01T20:05:17.456Z,23.23
2019-05-01T20:07:51.206Z,22.17
2019-05-01T20:10:22.935Z,25.67
2019-05-01T20:12:53.653Z,24.03
2019-05-01T20:15:27.907Z,20.77
2019-05-01T20:17:59.277Z,23.97
2019-05-01T20:20:30.291Z,19.83
2019-05-01T20:23:01.306Z,20.97
2019-05-01T20:25:32.282Z,18.93
2019-05-01T20:28:04.149Z,18.93
2019-05-01T20:30:35.233Z,19.20
2019-05-01T20:33:08.435Z,20.83
2019-05-01T20:35:40.314Z,20.77
2019-05-01T20:38:11.115Z,20.40
2019-05-01T20:40:43.648Z,19.90
2019-05-01T20:43:15.472Z,20.70
2019-05-01T20:45:49.330Z,21.07
2019-05-01T20:48:23.511Z,17.17
2019-05-01T20:50:52.210Z,18.37
2019-05-01T20:53:23.564Z,15.50
2019-05-01T20:55:58.589Z,15.03
2019-05-01T20:58:29.813Z,14.10
2019-05-01T21:01:02.780Z,14.17
2019-05-01T21:03:33.885Z,16.70
2019-05-01T21:06:07.911Z,15.43
2019-05-01T21:08:46.853Z,15.73
2019-05-01T21:11:19.593Z,16.97
2019-05-01T21:13:50.343Z,15.13
2019-05-01T21:16:21.794Z,14.17
2019-05-01T21:18:52.501Z,14.27
2019-05-01T21:21:24.778Z,15.67
2019-05-01T21:23:56.823Z,12.83
2019-05-01T21:26:28.651Z,12.83
2019-05-01T21:28:59.695Z,13.80
2019-05-01T21:31:31.292Z,13.70
2019-05-01T21:34:04.218Z,14.20
2019-05-01T21:36:36.325Z,14.13
2019-05-01T21:39:08.355Z,13.20
2019-05-01T21:41:39.523Z,11.53
2019-05-01T21:44:10.391Z,11.17
2019-05-01T21:46:43.170Z,12.03
2019-05-01T21:49:14.041Z,14.33
2019-05-01T21:51:46.938Z,11.63
2019-05-01T21:54:20.595Z,10.53
2019-05-01T21:56:51.907Z,12.47
2019-05-01T21:59:22.814Z,12.50
2019-05-01T22:01:54.022Z,10.73
2019-05-01T22:04:28.067Z,11.50
2019-05-01T22:07:01.070Z,12.03
2019-05-01T22:09:32.624Z,13.03
2019-05-01T22:12:03.628Z,12.03
2019-05-01T22:14:37.321Z,11.43
2019-05-01T22:17:27.295Z,11.10
2019-05-01T22:19:57.466Z,11.13
2019-05-01T22:22:44.028Z,10.67
2019-05-01T22:25:14.449Z,10.63
2019-05-01T22:27:47.690Z,14.03
2019-05-01T22:30:23.235Z,12.50
2019-05-01T22:32:55.338Z,11.13
2019-05-01T22:35:33.764Z,12.93
2019-05-01T22:38:06.362Z,12.57
2019-05-01T22:40:39.633Z,13.67
2019-05-01T22:43:10.508Z,10.83
2019-05-01T22:45:41.691Z,12.23
2019-05-01T22:48:12.687Z,15.90
2019-05-01T22:50:43.825Z,11.27
2019-05-01T22:53:14.772Z,11.63
2019-05-01T22:55:45.743Z,13.87
2019-05-01T22:58:17.051Z,12.30
2019-05-01T23:00:50.109Z,12.07
2019-05-01T23:03:40.563Z,12.37
2019-05-01T23:06:10.614Z,11.20
2019-05-01T23:08:42.791Z,14.73
2019-05-01T23:11:20.253Z,12.87
2019-05-01T23:13:47.327Z,14.00
2019-05-01T23:16:21.646Z,15.07
2019-05-01T23:18:53.288Z,13.70
2019-05-01T23:21:24.059Z,13.67
2019-05-01T23:23:56.808Z,12.33
2019-05-01T23:26:27.825Z,14.50
2019-05-01T23:28:58.644Z,13.07
2019-05-01T23:31:29.798Z,13.87
2019-05-01T23:34:01.778Z,15.60
2019-05-01T23:36:34.620Z,14.50
2019-05-01T23:39:06.449Z,15.20
2019-05-01T23:41:45.517Z,11.70
2019-05-01T23:44:11.786Z,13.90
2019-05-01T23:46:43.486Z,12.43
2019-05-01T23:49:14.819Z,12.77
2019-05-01T23:51:45.725Z,11.93
2019-05-01T23:54:16.465Z,10.77
2019-05-01T23:56:47.258Z,10.27
2019-05-01T23:59:17.893Z,16.43
